sensor_id;sensor_type;location;lat;lon;timestamp;temperature;humidity
12885;DHT22;6510;51.362;7.370;2023-02-28T00:01:14;-0.10;99.90
12885;DHT22;6510;51.362;7.370;2023-02-28T00:03:39;-0.10;99.90
12885;DHT22;6510;51.362;7.370;2023-02-28T00:06:07;-0.10;99.90
12885;DHT22;6510;51.362;7.370;2023-02-28T00:08:34;-0.20;99.90
12885;DHT22;6510;51.362;7.370;2023-02-28T00:11:04;-0.20;99.90
12885;DHT22;6510;51.362;7.370;2023-02-28T00:13:31;-0.30;99.90
12885;DHT22;6510;51.362;7.370;2023-02-28T00:16:02;-0.20;99.90
12885;DHT22;6510;51.362;7.370;2023-02-28T00:18:28;-0.20;99.90
12885;DHT22;6510;51.362;7.370;2023-02-28T00:20:53;-0.30;99.90
12885;DHT22;6510;51.362;7.370;2023-02-28T00:23:19;-0.30;99.90
12885;DHT22;6510;51.362;7.370;2023-02-28T00:25:44;-0.30;99.90
12885;DHT22;6510;51.362;7.370;2023-02-28T00:28:10;-0.40;99.90
12885;DHT22;6510;51.362;7.370;2023-02-28T00:30:36;-0.40;99.90
12885;DHT22;6510;51.362;7.370;2023-02-28T00:33:01;-0.50;99.90
12885;DHT22;6510;51.362;7.370;2023-02-28T00:35:27;-0.50;99.90
12885;DHT22;6510;51.362;7.370;2023-02-28T00:37:55;-0.60;99.90
12885;DHT22;6510;51.362;7.370;2023-02-28T00:40:20;-0.60;99.90
12885;DHT22;6510;51.362;7.370;2023-02-28T00:42:46;-0.60;99.90
12885;DHT22;6510;51.362;7.370;2023-02-28T00:45:12;-0.70;99.90
12885;DHT22;6510;51.362;7.370;2023-02-28T00:47:38;-0.80;99.90
12885;DHT22;6510;51.362;7.370;2023-02-28T00:50:04;-0.90;99.90
12885;DHT22;6510;51.362;7.370;2023-02-28T00:52:30;-0.90;99.90
12885;DHT22;6510;51.362;7.370;2023-02-28T00:54:55;-1.00;99.90
12885;DHT22;6510;51.362;7.370;2023-02-28T00:57:21;-1.10;99.90
12885;DHT22;6510;51.362;7.370;2023-02-28T00:59:47;-1.20;99.90
12885;DHT22;6510;51.362;7.370;2023-02-28T01:02:13;-1.20;99.90
12885;DHT22;6510;51.362;7.370;2023-02-28T01:04:38;-1.30;99.90
12885;DHT22;6510;51.362;7.370;2023-02-28T01:07:04;-1.30;99.90
12885;DHT22;6510;51.362;7.370;2023-02-28T01:09:30;-1.30;99.90
12885;DHT22;6510;51.362;7.370;2023-02-28T01:11:55;-1.30;99.90
12885;DHT22;6510;51.362;7.370;2023-02-28T01:14:21;-1.30;99.90
12885;DHT22;6510;51.362;7.370;2023-02-28T01:16:47;-1.40;99.90
12885;DHT22;6510;51.362;7.370;2023-02-28T01:19:13;-1.30;99.90
12885;DHT22;6510;51.362;7.370;2023-02-28T01:21:38;-1.40;99.90
12885;DHT22;6510;51.362;7.370;2023-02-28T01:24:05;-1.40;99.90
12885;DHT22;6510;51.362;7.370;2023-02-28T01:26:36;-1.50;99.90
12885;DHT22;6510;51.362;7.370;2023-02-28T01:29:02;-1.60;99.90
12885;DHT22;6510;51.362;7.370;2023-02-28T01:31:28;-1.60;99.90
12885;DHT22;6510;51.362;7.370;2023-02-28T01:33:54;-1.60;99.90
12885;DHT22;6510;51.362;7.370;2023-02-28T01:36:27;-1.70;99.90
12885;DHT22;6510;51.362;7.370;2023-02-28T01:38:53;-1.80;99.90
12885;DHT22;6510;51.362;7.370;2023-02-28T01:41:23;-1.80;99.90
12885;DHT22;6510;51.362;7.370;2023-02-28T01:46:15;-1.80;99.90
12885;DHT22;6510;51.362;7.370;2023-02-28T01:51:44;-1.70;99.90
12885;DHT22;6510;51.362;7.370;2023-02-28T01:54:15;-1.70;99.90
12885;DHT22;6510;51.362;7.370;2023-02-28T01:56:46;-1.80;99.90
12885;DHT22;6510;51.362;7.370;2023-02-28T01:59:17;-1.80;99.90
12885;DHT22;6510;51.362;7.370;2023-02-28T02:01:45;-1.80;99.90
12885;DHT22;6510;51.362;7.370;2023-02-28T02:04:10;-1.80;99.90
12885;DHT22;6510;51.362;7.370;2023-02-28T02:06:40;-1.80;99.90
12885;DHT22;6510;51.362;7.370;2023-02-28T02:09:05;-1.80;99.90
12885;DHT22;6510;51.362;7.370;2023-02-28T02:11:32;-1.90;99.90
12885;DHT22;6510;51.362;7.370;2023-02-28T02:33:45;-2.00;99.90
12885;DHT22;6510;51.362;7.370;2023-02-28T02:36:24;-2.00;99.90
12885;DHT22;6510;51.362;7.370;2023-02-28T02:44:07;-2.00;99.90
12885;DHT22;6510;51.362;7.370;2023-02-28T02:46:44;-2.00;99.90
12885;DHT22;6510;51.362;7.370;2023-02-28T02:49:17;-2.10;99.90
12885;DHT22;6510;51.362;7.370;2023-02-28T02:51:46;-2.00;99.90
12885;DHT22;6510;51.362;7.370;2023-02-28T02:54:45;-2.10;99.90
12885;DHT22;6510;51.362;7.370;2023-02-28T02:57:26;-2.10;99.90
12885;DHT22;6510;51.362;7.370;2023-02-28T02:59:54;-2.10;99.90
12885;DHT22;6510;51.362;7.370;2023-02-28T03:02:21;-2.20;99.90
12885;DHT22;6510;51.362;7.370;2023-02-28T03:04:52;-2.20;99.90
12885;DHT22;6510;51.362;7.370;2023-02-28T03:07:18;-2.20;99.90
12885;DHT22;6510;51.362;7.370;2023-02-28T03:09:52;-2.10;99.90
12885;DHT22;6510;51.362;7.370;2023-02-28T03:12:18;-2.20;99.90
12885;DHT22;6510;51.362;7.370;2023-02-28T03:23:16;-2.30;99.90
12885;DHT22;6510;51.362;7.370;2023-02-28T03:28:28;-2.30;99.90
12885;DHT22;6510;51.362;7.370;2023-02-28T03:31:10;-2.40;99.90
12885;DHT22;6510;51.362;7.370;2023-02-28T03:33:44;-2.40;99.90
12885;DHT22;6510;51.362;7.370;2023-02-28T03:36:22;-2.40;99.90
12885;DHT22;6510;51.362;7.370;2023-02-28T03:38:55;-2.40;99.90
12885;DHT22;6510;51.362;7.370;2023-02-28T03:44:25;-2.50;99.90
12885;DHT22;6510;51.362;7.370;2023-02-28T03:47:00;-2.50;99.90
12885;DHT22;6510;51.362;7.370;2023-02-28T03:49:32;-2.50;99.90
12885;DHT22;6510;51.362;7.370;2023-02-28T03:52:02;-2.60;99.90
12885;DHT22;6510;51.362;7.370;2023-02-28T03:54:31;-2.50;99.90
12885;DHT22;6510;51.362;7.370;2023-02-28T03:57:10;-2.60;99.90
12885;DHT22;6510;51.362;7.370;2023-02-28T03:59:46;-2.60;99.90
12885;DHT22;6510;51.362;7.370;2023-02-28T04:02:13;-2.60;99.90
12885;DHT22;6510;51.362;7.370;2023-02-28T04:04:39;-2.70;99.90
12885;DHT22;6510;51.362;7.370;2023-02-28T04:07:11;-2.60;99.90
12885;DHT22;6510;51.362;7.370;2023-02-28T04:09:37;-2.70;99.90
12885;DHT22;6510;51.362;7.370;2023-02-28T04:12:03;-2.70;99.90
12885;DHT22;6510;51.362;7.370;2023-02-28T04:14:29;-2.70;99.90
12885;DHT22;6510;51.362;7.370;2023-02-28T04:16:55;-2.70;99.90
12885;DHT22;6510;51.362;7.370;2023-02-28T04:19:20;-2.70;99.90
12885;DHT22;6510;51.362;7.370;2023-02-28T04:21:48;-2.70;99.90
12885;DHT22;6510;51.362;7.370;2023-02-28T04:24:20;-2.70;99.90
12885;DHT22;6510;51.362;7.370;2023-02-28T04:26:47;-2.70;99.90
12885;DHT22;6510;51.362;7.370;2023-02-28T04:29:19;-2.60;99.90
12885;DHT22;6510;51.362;7.370;2023-02-28T04:31:44;-2.60;99.90
12885;DHT22;6510;51.362;7.370;2023-02-28T04:34:10;-2.70;99.90
12885;DHT22;6510;51.362;7.370;2023-02-28T04:36:36;-2.80;99.90
12885;DHT22;6510;51.362;7.370;2023-02-28T04:39:01;-2.80;99.90
12885;DHT22;6510;51.362;7.370;2023-02-28T04:41:27;-2.90;99.90
12885;DHT22;6510;51.362;7.370;2023-02-28T04:43:53;-2.90;99.90
12885;DHT22;6510;51.362;7.370;2023-02-28T04:46:19;-3.00;99.90
12885;DHT22;6510;51.362;7.370;2023-02-28T04:48:45;-3.00;99.90
12885;DHT22;6510;51.362;7.370;2023-02-28T04:51:13;-3.00;99.90
12885;DHT22;6510;51.362;7.370;2023-02-28T04:53:40;-3.10;99.90
12885;DHT22;6510;51.362;7.370;2023-02-28T04:56:07;-3.10;99.90
12885;DHT22;6510;51.362;7.370;2023-02-28T04:58:34;-3.10;99.90
12885;DHT22;6510;51.362;7.370;2023-02-28T05:03:43;-3.00;99.90
12885;DHT22;6510;51.362;7.370;2023-02-28T05:06:09;-3.00;99.90
12885;DHT22;6510;51.362;7.370;2023-02-28T05:08:35;-3.00;99.90
12885;DHT22;6510;51.362;7.370;2023-02-28T05:11:01;-3.00;99.90
12885;DHT22;6510;51.362;7.370;2023-02-28T05:13:28;-3.10;99.90
12885;DHT22;6510;51.362;7.370;2023-02-28T05:15:54;-3.10;99.90
12885;DHT22;6510;51.362;7.370;2023-02-28T05:18:20;-3.20;99.90
12885;DHT22;6510;51.362;7.370;2023-02-28T05:20:46;-3.20;99.90
12885;DHT22;6510;51.362;7.370;2023-02-28T05:23:13;-3.30;99.90
12885;DHT22;6510;51.362;7.370;2023-02-28T05:25:40;-3.30;99.90
12885;DHT22;6510;51.362;7.370;2023-02-28T05:28:06;-3.30;99.90
12885;DHT22;6510;51.362;7.370;2023-02-28T05:30:32;-3.40;99.90
12885;DHT22;6510;51.362;7.370;2023-02-28T05:32:58;-3.40;99.90
12885;DHT22;6510;51.362;7.370;2023-02-28T05:35:24;-3.50;99.90
12885;DHT22;6510;51.362;7.370;2023-02-28T05:37:50;-3.40;99.90
12885;DHT22;6510;51.362;7.370;2023-02-28T05:40:16;-3.40;99.90
12885;DHT22;6510;51.362;7.370;2023-02-28T05:42:42;-3.40;99.90
12885;DHT22;6510;51.362;7.370;2023-02-28T05:45:09;-3.30;99.90
12885;DHT22;6510;51.362;7.370;2023-02-28T05:47:35;-3.40;99.90
12885;DHT22;6510;51.362;7.370;2023-02-28T05:50:01;-3.40;99.90
12885;DHT22;6510;51.362;7.370;2023-02-28T05:52:28;-3.40;99.90
12885;DHT22;6510;51.362;7.370;2023-02-28T05:54:55;-3.40;99.90
12885;DHT22;6510;51.362;7.370;2023-02-28T05:57:22;-3.40;99.90
12885;DHT22;6510;51.362;7.370;2023-02-28T05:59:47;-3.40;99.90
12885;DHT22;6510;51.362;7.370;2023-02-28T06:02:15;-3.50;99.90
12885;DHT22;6510;51.362;7.370;2023-02-28T06:04:41;-3.40;99.90
12885;DHT22;6510;51.362;7.370;2023-02-28T06:07:08;-3.50;99.90
12885;DHT22;6510;51.362;7.370;2023-02-28T06:09:34;-3.40;99.90
12885;DHT22;6510;51.362;7.370;2023-02-28T06:12:01;-3.30;99.90
12885;DHT22;6510;51.362;7.370;2023-02-28T06:14:29;-3.30;99.90
12885;DHT22;6510;51.362;7.370;2023-02-28T06:16:57;-3.20;99.90
12885;DHT22;6510;51.362;7.370;2023-02-28T06:19:22;-3.20;99.90
12885;DHT22;6510;51.362;7.370;2023-02-28T06:21:51;-3.30;99.90
12885;DHT22;6510;51.362;7.370;2023-02-28T06:24:19;-3.30;99.90
12885;DHT22;6510;51.362;7.370;2023-02-28T06:26:45;-3.20;99.90
12885;DHT22;6510;51.362;7.370;2023-02-28T06:29:10;-3.10;99.90
12885;DHT22;6510;51.362;7.370;2023-02-28T06:31:36;-3.00;99.90
12885;DHT22;6510;51.362;7.370;2023-02-28T06:34:04;-3.00;99.90
12885;DHT22;6510;51.362;7.370;2023-02-28T06:36:29;-3.00;99.90
12885;DHT22;6510;51.362;7.370;2023-02-28T06:38:55;-3.00;99.90
12885;DHT22;6510;51.362;7.370;2023-02-28T06:41:25;-3.00;99.90
12885;DHT22;6510;51.362;7.370;2023-02-28T06:43:52;-3.00;99.90
12885;DHT22;6510;51.362;7.370;2023-02-28T06:46:18;-3.00;99.90
12885;DHT22;6510;51.362;7.370;2023-02-28T06:48:44;-2.90;99.90
12885;DHT22;6510;51.362;7.370;2023-02-28T06:51:18;-2.80;99.90
12885;DHT22;6510;51.362;7.370;2023-02-28T06:53:45;-2.70;99.90
12885;DHT22;6510;51.362;7.370;2023-02-28T06:56:13;-2.70;99.90
12885;DHT22;6510;51.362;7.370;2023-02-28T06:58:39;-2.50;99.90
12885;DHT22;6510;51.362;7.370;2023-02-28T07:01:06;-2.40;99.90
12885;DHT22;6510;51.362;7.370;2023-02-28T07:03:32;-2.40;99.90
12885;DHT22;6510;51.362;7.370;2023-02-28T07:05:58;-2.30;99.90
12885;DHT22;6510;51.362;7.370;2023-02-28T07:08:25;-2.40;99.90
12885;DHT22;6510;51.362;7.370;2023-02-28T07:10:56;-2.30;99.90
12885;DHT22;6510;51.362;7.370;2023-02-28T07:13:22;-1.40;99.90
12885;DHT22;6510;51.362;7.370;2023-02-28T07:16:03;-0.90;99.90
12885;DHT22;6510;51.362;7.370;2023-02-28T07:18:29;-0.70;99.90
12885;DHT22;6510;51.362;7.370;2023-02-28T07:20:55;-0.40;99.90
12885;DHT22;6510;51.362;7.370;2023-02-28T07:23:21;0.00;99.90
12885;DHT22;6510;51.362;7.370;2023-02-28T07:25:47;1.00;99.90
12885;DHT22;6510;51.362;7.370;2023-02-28T07:28:14;1.90;99.90
12885;DHT22;6510;51.362;7.370;2023-02-28T07:30:40;2.40;99.90
12885;DHT22;6510;51.362;7.370;2023-02-28T07:33:06;2.90;99.90
12885;DHT22;6510;51.362;7.370;2023-02-28T07:35:32;3.70;99.90
12885;DHT22;6510;51.362;7.370;2023-02-28T07:37:58;4.20;99.90
12885;DHT22;6510;51.362;7.370;2023-02-28T07:40:24;4.90;99.90
12885;DHT22;6510;51.362;7.370;2023-02-28T07:42:50;5.30;99.90
12885;DHT22;6510;51.362;7.370;2023-02-28T07:45:15;5.10;99.90
12885;DHT22;6510;51.362;7.370;2023-02-28T07:47:43;5.50;99.90
12885;DHT22;6510;51.362;7.370;2023-02-28T07:50:12;6.00;99.90
12885;DHT22;6510;51.362;7.370;2023-02-28T07:52:38;6.70;99.90
12885;DHT22;6510;51.362;7.370;2023-02-28T07:55:05;6.90;99.90
12885;DHT22;6510;51.362;7.370;2023-02-28T07:57:31;7.90;99.90
12885;DHT22;6510;51.362;7.370;2023-02-28T07:59:57;7.60;99.90
12885;DHT22;6510;51.362;7.370;2023-02-28T08:02:23;7.50;99.90
12885;DHT22;6510;51.362;7.370;2023-02-28T08:04:49;7.30;99.90
12885;DHT22;6510;51.362;7.370;2023-02-28T08:07:15;7.30;99.90
12885;DHT22;6510;51.362;7.370;2023-02-28T08:09:41;5.80;99.90
12885;DHT22;6510;51.362;7.370;2023-02-28T08:12:07;7.20;99.90
12885;DHT22;6510;51.362;7.370;2023-02-28T08:14:33;7.10;99.90
12885;DHT22;6510;51.362;7.370;2023-02-28T08:16:59;6.30;99.90
12885;DHT22;6510;51.362;7.370;2023-02-28T08:19:25;4.80;99.90
12885;DHT22;6510;51.362;7.370;2023-02-28T08:21:51;4.90;99.90
12885;DHT22;6510;51.362;7.370;2023-02-28T08:24:17;4.30;99.90
12885;DHT22;6510;51.362;7.370;2023-02-28T08:26:43;3.60;99.90
12885;DHT22;6510;51.362;7.370;2023-02-28T08:29:09;2.40;99.90
12885;DHT22;6510;51.362;7.370;2023-02-28T08:31:34;2.90;99.90
12885;DHT22;6510;51.362;7.370;2023-02-28T08:34:07;2.40;99.90
12885;DHT22;6510;51.362;7.370;2023-02-28T08:36:33;2.20;99.90
12885;DHT22;6510;51.362;7.370;2023-02-28T08:38:59;1.90;99.90
12885;DHT22;6510;51.362;7.370;2023-02-28T08:41:25;1.90;99.90
12885;DHT22;6510;51.362;7.370;2023-02-28T08:43:51;2.00;99.90
12885;DHT22;6510;51.362;7.370;2023-02-28T08:46:17;2.10;99.90
12885;DHT22;6510;51.362;7.370;2023-02-28T08:48:43;2.40;99.90
12885;DHT22;6510;51.362;7.370;2023-02-28T08:51:14;2.10;99.90
12885;DHT22;6510;51.362;7.370;2023-02-28T08:53:42;2.10;99.90
12885;DHT22;6510;51.362;7.370;2023-02-28T08:56:11;2.10;99.90
12885;DHT22;6510;51.362;7.370;2023-02-28T08:58:37;1.80;99.90
12885;DHT22;6510;51.362;7.370;2023-02-28T09:01:20;1.70;99.90
12885;DHT22;6510;51.362;7.370;2023-02-28T09:03:48;5.80;99.90
12885;DHT22;6510;51.362;7.370;2023-02-28T09:06:15;7.60;99.90
12885;DHT22;6510;51.362;7.370;2023-02-28T09:08:42;7.70;99.90
12885;DHT22;6510;51.362;7.370;2023-02-28T09:11:07;8.10;99.90
12885;DHT22;6510;51.362;7.370;2023-02-28T09:13:33;5.30;99.90
12885;DHT22;6510;51.362;7.370;2023-02-28T09:16:00;4.90;99.90
12885;DHT22;6510;51.362;7.370;2023-02-28T09:18:26;4.80;99.90
12885;DHT22;6510;51.362;7.370;2023-02-28T09:20:53;3.90;99.90
12885;DHT22;6510;51.362;7.370;2023-02-28T09:23:19;4.00;99.90
12885;DHT22;6510;51.362;7.370;2023-02-28T09:25:52;3.70;99.90
12885;DHT22;6510;51.362;7.370;2023-02-28T09:28:19;3.90;99.90
12885;DHT22;6510;51.362;7.370;2023-02-28T09:30:48;3.70;99.90
12885;DHT22;6510;51.362;7.370;2023-02-28T09:33:15;3.50;99.90
12885;DHT22;6510;51.362;7.370;2023-02-28T09:35:41;3.20;99.90
12885;DHT22;6510;51.362;7.370;2023-02-28T09:38:07;3.20;99.90
12885;DHT22;6510;51.362;7.370;2023-02-28T09:40:52;2.90;99.90
12885;DHT22;6510;51.362;7.370;2023-02-28T09:43:20;2.90;99.90
12885;DHT22;6510;51.362;7.370;2023-02-28T09:45:52;2.80;99.90
12885;DHT22;6510;51.362;7.370;2023-02-28T09:48:32;2.70;99.90
12885;DHT22;6510;51.362;7.370;2023-02-28T09:51:09;3.10;99.90
12885;DHT22;6510;51.362;7.370;2023-02-28T09:53:38;4.40;99.90
12885;DHT22;6510;51.362;7.370;2023-02-28T09:56:09;4.00;99.90
12885;DHT22;6510;51.362;7.370;2023-02-28T09:58:45;2.90;99.90
12885;DHT22;6510;51.362;7.370;2023-02-28T10:01:45;3.20;99.90
12885;DHT22;6510;51.362;7.370;2023-02-28T10:04:43;2.60;99.90
12885;DHT22;6510;51.362;7.370;2023-02-28T10:09:56;2.50;99.90
12885;DHT22;6510;51.362;7.370;2023-02-28T10:12:22;2.60;99.90
12885;DHT22;6510;51.362;7.370;2023-02-28T10:14:52;2.30;99.90
12885;DHT22;6510;51.362;7.370;2023-02-28T10:17:36;2.60;99.90
12885;DHT22;6510;51.362;7.370;2023-02-28T10:20:09;2.80;99.90
12885;DHT22;6510;51.362;7.370;2023-02-28T10:25:21;4.80;99.90
12885;DHT22;6510;51.362;7.370;2023-02-28T10:27:50;3.90;99.90
12885;DHT22;6510;51.362;7.370;2023-02-28T10:30:18;5.60;99.90
12885;DHT22;6510;51.362;7.370;2023-02-28T10:32:52;4.40;99.90
12885;DHT22;6510;51.362;7.370;2023-02-28T10:35:25;5.50;99.90
12885;DHT22;6510;51.362;7.370;2023-02-28T10:37:57;4.70;99.90
12885;DHT22;6510;51.362;7.370;2023-02-28T10:45:35;7.90;99.90
12885;DHT22;6510;51.362;7.370;2023-02-28T10:48:25;6.40;99.90
12885;DHT22;6510;51.362;7.370;2023-02-28T10:50:52;4.90;99.90
12885;DHT22;6510;51.362;7.370;2023-02-28T10:58:49;4.50;99.90
12885;DHT22;6510;51.362;7.370;2023-02-28T11:04:01;7.20;99.90
12885;DHT22;6510;51.362;7.370;2023-02-28T11:06:33;7.90;99.90
12885;DHT22;6510;51.362;7.370;2023-02-28T11:11:45;8.60;99.90
12885;DHT22;6510;51.362;7.370;2023-02-28T11:14:27;6.20;99.90
12885;DHT22;6510;51.362;7.370;2023-02-28T11:16:54;7.00;99.90
12885;DHT22;6510;51.362;7.370;2023-02-28T11:19:25;9.40;99.90
12885;DHT22;6510;51.362;7.370;2023-02-28T11:21:58;9.80;99.90
12885;DHT22;6510;51.362;7.370;2023-02-28T11:26:50;10.10;99.90
12885;DHT22;6510;51.362;7.370;2023-02-28T11:29:21;10.60;99.90
12885;DHT22;6510;51.362;7.370;2023-02-28T11:34:36;12.00;99.90
12885;DHT22;6510;51.362;7.370;2023-02-28T11:37:16;11.80;99.90
12885;DHT22;6510;51.362;7.370;2023-02-28T11:39:44;11.80;99.90
12885;DHT22;6510;51.362;7.370;2023-02-28T11:42:31;12.00;99.90
12885;DHT22;6510;51.362;7.370;2023-02-28T11:50:56;10.90;99.90
12885;DHT22;6510;51.362;7.370;2023-02-28T11:53:46;7.20;99.90
12885;DHT22;6510;51.362;7.370;2023-02-28T12:02:20;9.80;99.90
12885;DHT22;6510;51.362;7.370;2023-02-28T12:05:24;9.00;99.90
12885;DHT22;6510;51.362;7.370;2023-02-28T12:08:04;11.00;99.90
12885;DHT22;6510;51.362;7.370;2023-02-28T12:19:24;11.90;99.90
12885;DHT22;6510;51.362;7.370;2023-02-28T12:27:49;6.60;99.90
12885;DHT22;6510;51.362;7.370;2023-02-28T12:30:34;8.30;99.90
12885;DHT22;6510;51.362;7.370;2023-02-28T12:33:12;9.30;99.90
12885;DHT22;6510;51.362;7.370;2023-02-28T12:35:57;10.60;99.90
12885;DHT22;6510;51.362;7.370;2023-02-28T12:38:52;11.00;99.90
12885;DHT22;6510;51.362;7.370;2023-02-28T12:41:45;11.50;99.90
12885;DHT22;6510;51.362;7.370;2023-02-28T12:46:55;10.70;99.90
12885;DHT22;6510;51.362;7.370;2023-02-28T12:49:30;11.10;99.90
12885;DHT22;6510;51.362;7.370;2023-02-28T12:51:59;11.60;99.90
12885;DHT22;6510;51.362;7.370;2023-02-28T12:54:47;12.00;99.90
12885;DHT22;6510;51.362;7.370;2023-02-28T12:57:28;12.40;99.90
12885;DHT22;6510;51.362;7.370;2023-02-28T13:00:03;12.20;99.90
12885;DHT22;6510;51.362;7.370;2023-02-28T13:10:48;11.40;99.90
12885;DHT22;6510;51.362;7.370;2023-02-28T13:13:25;11.20;99.90
12885;DHT22;6510;51.362;7.370;2023-02-28T13:16:10;10.70;99.90
12885;DHT22;6510;51.362;7.370;2023-02-28T13:18:44;11.60;99.90
12885;DHT22;6510;51.362;7.370;2023-02-28T13:21:27;12.40;99.90
12885;DHT22;6510;51.362;7.370;2023-02-28T13:29:02;11.50;99.90
12885;DHT22;6510;51.362;7.370;2023-02-28T13:31:29;11.60;99.90
12885;DHT22;6510;51.362;7.370;2023-02-28T13:36:31;11.80;99.90
12885;DHT22;6510;51.362;7.370;2023-02-28T13:38:58;10.90;99.90
12885;DHT22;6510;51.362;7.370;2023-02-28T13:52:16;11.40;99.90
12885;DHT22;6510;51.362;7.370;2023-02-28T13:58:22;10.60;99.90
12885;DHT22;6510;51.362;7.370;2023-02-28T14:03:42;11.40;99.90
12885;DHT22;6510;51.362;7.370;2023-02-28T14:06:29;11.10;99.90
12885;DHT22;6510;51.362;7.370;2023-02-28T14:11:39;11.50;99.90
12885;DHT22;6510;51.362;7.370;2023-02-28T14:14:06;10.80;99.90
12885;DHT22;6510;51.362;7.370;2023-02-28T14:16:46;11.00;99.90
12885;DHT22;6510;51.362;7.370;2023-02-28T14:19:22;11.20;99.90
12885;DHT22;6510;51.362;7.370;2023-02-28T14:37:54;9.60;99.90
12885;DHT22;6510;51.362;7.370;2023-02-28T14:40:27;10.20;99.90
12885;DHT22;6510;51.362;7.370;2023-02-28T14:42:57;11.00;99.90
12885;DHT22;6510;51.362;7.370;2023-02-28T14:45:25;10.90;99.90
12885;DHT22;6510;51.362;7.370;2023-02-28T14:47:52;10.20;99.90
12885;DHT22;6510;51.362;7.370;2023-02-28T14:50:22;10.50;99.90
12885;DHT22;6510;51.362;7.370;2023-02-28T14:52:54;10.30;99.90
12885;DHT22;6510;51.362;7.370;2023-02-28T14:55:45;10.40;99.90
12885;DHT22;6510;51.362;7.370;2023-02-28T14:58:25;10.00;99.90
12885;DHT22;6510;51.362;7.370;2023-02-28T15:00:56;9.60;99.90
12885;DHT22;6510;51.362;7.370;2023-02-28T15:03:30;9.70;99.90
12885;DHT22;6510;51.362;7.370;2023-02-28T15:06:21;9.70;99.90
12885;DHT22;6510;51.362;7.370;2023-02-28T15:08:46;9.60;99.90
12885;DHT22;6510;51.362;7.370;2023-02-28T15:11:17;9.70;99.90
12885;DHT22;6510;51.362;7.370;2023-02-28T15:13:52;10.00;99.90
12885;DHT22;6510;51.362;7.370;2023-02-28T15:16:24;9.50;99.90
12885;DHT22;6510;51.362;7.370;2023-02-28T15:19:02;9.80;99.90
12885;DHT22;6510;51.362;7.370;2023-02-28T15:21:34;9.20;99.90
12885;DHT22;6510;51.362;7.370;2023-02-28T15:24:13;6.90;99.90
12885;DHT22;6510;51.362;7.370;2023-02-28T15:26:43;6.00;99.90
12885;DHT22;6510;51.362;7.370;2023-02-28T15:29:19;5.60;99.90
12885;DHT22;6510;51.362;7.370;2023-02-28T15:31:49;5.40;99.90
12885;DHT22;6510;51.362;7.370;2023-02-28T15:34:27;5.20;99.90
12885;DHT22;6510;51.362;7.370;2023-02-28T15:36:53;5.10;99.90
12885;DHT22;6510;51.362;7.370;2023-02-28T15:39:27;5.00;99.90
12885;DHT22;6510;51.362;7.370;2023-02-28T15:42:13;4.80;99.90
12885;DHT22;6510;51.362;7.370;2023-02-28T15:44:42;4.70;99.90
12885;DHT22;6510;51.362;7.370;2023-02-28T15:47:19;4.50;99.90
12885;DHT22;6510;51.362;7.370;2023-02-28T15:49:50;4.40;99.90
12885;DHT22;6510;51.362;7.370;2023-02-28T15:52:38;4.40;99.90
12885;DHT22;6510;51.362;7.370;2023-02-28T15:55:20;4.20;99.90
12885;DHT22;6510;51.362;7.370;2023-02-28T15:57:49;4.10;99.90
12885;DHT22;6510;51.362;7.370;2023-02-28T16:00:20;4.00;99.90
12885;DHT22;6510;51.362;7.370;2023-02-28T16:02:46;4.00;99.90
12885;DHT22;6510;51.362;7.370;2023-02-28T16:07:39;3.80;99.90
12885;DHT22;6510;51.362;7.370;2023-02-28T16:10:08;3.80;99.90
12885;DHT22;6510;51.362;7.370;2023-02-28T16:12:37;3.70;99.90
12885;DHT22;6510;51.362;7.370;2023-02-28T16:15:27;3.70;99.90
12885;DHT22;6510;51.362;7.370;2023-02-28T16:17:54;3.60;99.90
12885;DHT22;6510;51.362;7.370;2023-02-28T16:20:30;3.50;99.90
12885;DHT22;6510;51.362;7.370;2023-02-28T16:22:56;3.40;99.90
12885;DHT22;6510;51.362;7.370;2023-02-28T16:25:43;3.40;99.90
12885;DHT22;6510;51.362;7.370;2023-02-28T16:28:36;3.40;99.90
12885;DHT22;6510;51.362;7.370;2023-02-28T16:31:05;3.30;99.90
12885;DHT22;6510;51.362;7.370;2023-02-28T16:33:32;3.20;99.90
12885;DHT22;6510;51.362;7.370;2023-02-28T16:36:01;3.20;99.90
12885;DHT22;6510;51.362;7.370;2023-02-28T16:38:27;3.10;99.90
12885;DHT22;6510;51.362;7.370;2023-02-28T16:40:55;3.00;99.90
12885;DHT22;6510;51.362;7.370;2023-02-28T16:43:23;3.00;99.90
12885;DHT22;6510;51.362;7.370;2023-02-28T16:45:55;3.00;99.90
12885;DHT22;6510;51.362;7.370;2023-02-28T16:48:22;2.90;99.90
12885;DHT22;6510;51.362;7.370;2023-02-28T16:50:47;2.80;99.90
12885;DHT22;6510;51.362;7.370;2023-02-28T16:53:13;2.80;99.90
12885;DHT22;6510;51.362;7.370;2023-02-28T16:55:39;2.70;99.90
12885;DHT22;6510;51.362;7.370;2023-02-28T16:58:04;2.70;99.90
12885;DHT22;6510;51.362;7.370;2023-02-28T17:00:31;2.60;99.90
12885;DHT22;6510;51.362;7.370;2023-02-28T17:02:57;2.60;99.90
12885;DHT22;6510;51.362;7.370;2023-02-28T17:05:25;2.50;99.90
12885;DHT22;6510;51.362;7.370;2023-02-28T17:07:53;2.50;99.90
12885;DHT22;6510;51.362;7.370;2023-02-28T17:10:21;2.40;99.90
12885;DHT22;6510;51.362;7.370;2023-02-28T17:12:48;2.40;99.90
12885;DHT22;6510;51.362;7.370;2023-02-28T17:15:15;2.30;99.90
12885;DHT22;6510;51.362;7.370;2023-02-28T17:17:42;2.30;99.90
12885;DHT22;6510;51.362;7.370;2023-02-28T17:20:17;2.30;99.90
12885;DHT22;6510;51.362;7.370;2023-02-28T17:22:43;2.20;99.90
12885;DHT22;6510;51.362;7.370;2023-02-28T17:25:10;2.20;99.90
12885;DHT22;6510;51.362;7.370;2023-02-28T17:27:37;2.10;99.90
12885;DHT22;6510;51.362;7.370;2023-02-28T17:32:41;2.20;99.90
12885;DHT22;6510;51.362;7.370;2023-02-28T17:35:07;2.00;99.90
12885;DHT22;6510;51.362;7.370;2023-02-28T17:37:33;2.00;99.90
12885;DHT22;6510;51.362;7.370;2023-02-28T17:39:59;1.90;99.90
12885;DHT22;6510;51.362;7.370;2023-02-28T17:42:24;1.90;99.90
12885;DHT22;6510;51.362;7.370;2023-02-28T17:44:50;1.80;99.90
12885;DHT22;6510;51.362;7.370;2023-02-28T17:47:15;1.80;99.90
12885;DHT22;6510;51.362;7.370;2023-02-28T17:49:41;1.70;99.90
12885;DHT22;6510;51.362;7.370;2023-02-28T17:52:07;1.70;99.90
12885;DHT22;6510;51.362;7.370;2023-02-28T17:54:33;1.70;99.90
12885;DHT22;6510;51.362;7.370;2023-02-28T17:56:59;1.70;99.90
12885;DHT22;6510;51.362;7.370;2023-02-28T17:59:24;1.60;99.90
12885;DHT22;6510;51.362;7.370;2023-02-28T18:01:50;1.60;99.90
12885;DHT22;6510;51.362;7.370;2023-02-28T18:04:16;1.50;99.90
12885;DHT22;6510;51.362;7.370;2023-02-28T18:06:44;1.50;99.90
12885;DHT22;6510;51.362;7.370;2023-02-28T18:09:20;1.40;99.90
12885;DHT22;6510;51.362;7.370;2023-02-28T18:11:53;1.30;99.90
12885;DHT22;6510;51.362;7.370;2023-02-28T18:14:21;1.30;99.90
12885;DHT22;6510;51.362;7.370;2023-02-28T18:16:49;1.30;99.90
12885;DHT22;6510;51.362;7.370;2023-02-28T18:19:14;1.30;99.90
12885;DHT22;6510;51.362;7.370;2023-02-28T18:21:45;1.30;99.90
12885;DHT22;6510;51.362;7.370;2023-02-28T18:24:12;1.30;99.90
12885;DHT22;6510;51.362;7.370;2023-02-28T18:26:38;1.20;99.90
12885;DHT22;6510;51.362;7.370;2023-02-28T18:29:05;1.20;99.90
12885;DHT22;6510;51.362;7.370;2023-02-28T18:31:31;1.10;99.90
12885;DHT22;6510;51.362;7.370;2023-02-28T18:33:57;1.10;99.90
12885;DHT22;6510;51.362;7.370;2023-02-28T18:36:24;1.00;99.90
12885;DHT22;6510;51.362;7.370;2023-02-28T18:38:50;1.10;99.90
12885;DHT22;6510;51.362;7.370;2023-02-28T18:41:20;1.00;99.90
12885;DHT22;6510;51.362;7.370;2023-02-28T18:43:46;1.00;99.90
12885;DHT22;6510;51.362;7.370;2023-02-28T18:46:17;0.90;99.90
12885;DHT22;6510;51.362;7.370;2023-02-28T18:48:46;0.90;99.90